Time;durP1;ratioP1;P1;durP2;ratioP2;P2;SDS_P1;SDS_P2;PMS_P1;PMS_P2;Temp;Humidity;BMP_temperature;BMP_pressure;BME280_temperature;BME280_humidity;BME280_pressure;Samples;Min_cycle;Max_cycle;Signal;HPM_P1;HPM_P2
2022/07/15 00:02:37;;;;;;;0.40;0.40;;;17.20;99.90;17.50;102155.00;;;;5075907;28;20182;-65
2022/07/15 00:05:24;;;;;;;0.40;0.40;;;17.10;99.90;17.50;102155.00;;;;5091227;28;20177;-65
2022/07/15 00:08:27;;;;;;;0.40;0.40;;;17.10;99.90;17.60;102162.00;;;;5091282;28;20244;-65
2022/07/15 00:11:19;;;;;;;0.40;0.40;;;17.00;99.90;17.80;102161.00;;;;5091231;28;20624;-64
2022/07/15 00:14:20;;;;;;;0.30;0.30;;;17.00;99.90;17.60;102162.00;;;;5091341;28;20235;-64
2022/07/15 00:17:04;;;;;;;0.30;0.30;;;17.00;99.90;17.40;102152.00;;;;5091172;28;20189;-65
2022/07/15 00:19:47;;;;;;;0.40;0.40;;;16.90;99.90;17.40;102152.00;;;;5074280;28;20189;-65
2022/07/15 00:22:16;;;;;;;0.50;0.50;;;17.00;99.90;17.60;102156.00;;;;5090923;28;20521;-65
2022/07/15 00:25:02;;;;;;;0.40;0.40;;;17.10;99.90;17.50;102146.00;;;;5091180;28;20174;-65
2022/07/15 00:27:54;;;;;;;0.40;0.40;;;17.00;99.90;17.70;102158.00;;;;5074238;28;20192;-65
2022/07/15 00:30:50;;;;;;;0.40;0.40;;;17.10;99.90;17.70;102143.00;;;;5090953;28;20311;-65
2022/07/15 00:33:42;;;;;;;0.80;0.80;;;17.10;99.90;17.70;102144.00;;;;5090847;28;20204;-65
2022/07/15 00:36:25;;;;;;;0.50;0.50;;;17.10;99.90;17.80;102142.00;;;;5090556;28;20185;-65
2022/07/15 00:39:17;;;;;;;0.40;0.40;;;17.10;99.90;17.70;102152.00;;;;5091291;28;20674;-65
2022/07/15 00:42:03;;;;;;;0.40;0.40;;;17.10;99.90;17.70;102134.00;;;;5074029;28;20526;-64
2022/07/15 00:44:47;;;;;;;0.30;0.30;;;17.10;99.90;17.50;102139.00;;;;5073873;28;20223;-65
2022/07/15 00:47:31;;;;;;;0.40;0.40;;;17.10;99.90;17.20;102143.00;;;;5090486;28;20276;-65
2022/07/15 00:50:16;;;;;;;0.40;0.40;;;16.80;99.90;17.40;102140.00;;;;5090376;28;20181;-65
2022/07/15 01:08:36;;;;;;;0.50;0.50;;;16.60;99.90;16.80;102135.00;;;;5093232;28;20196;-64
2022/07/15 01:11:05;;;;;;;0.40;0.40;;;16.40;99.90;17.10;102140.00;;;;5003293;28;20277;-64
2022/07/15 01:13:50;;;;;;;0.40;0.40;;;16.40;99.90;16.70;102133.00;;;;5056403;28;20269;-64
2022/07/15 01:16:25;;;;;;;0.40;0.40;;;16.40;99.90;16.50;102104.00;;;;5074841;28;20326;-65
2022/07/15 01:19:12;;;;;;;0.40;0.40;;;16.20;99.90;16.80;102144.00;;;;5057215;28;20626;-65
2022/07/15 01:21:56;;;;;;;0.40;0.40;;;16.20;99.90;16.90;102138.00;;;;5056548;28;20221;-65
2022/07/15 01:24:47;;;;;;;0.50;0.50;;;16.30;99.90;16.60;102100.00;;;;5073028;28;20189;-65
2022/07/15 01:27:32;;;;;;;0.50;0.50;;;16.30;99.90;16.60;102134.00;;;;5073265;28;20186;-65
2022/07/15 01:30:15;;;;;;;0.60;0.60;;;16.10;99.90;16.50;102133.00;;;;5074505;28;20168;-65
2022/07/15 01:33:16;;;;;;;0.40;0.40;;;16.10;99.90;16.60;102141.00;;;;5074127;28;20226;-65
2022/07/15 01:36:03;;;;;;;0.50;0.50;;;16.10;99.90;16.60;102152.00;;;;5072816;28;20189;-64
2022/07/15 01:38:46;;;;;;;0.40;0.40;;;16.20;99.90;16.40;102144.00;;;;5057578;28;20181;-64
2022/07/15 01:41:30;;;;;;;0.40;0.40;;;16.00;99.90;16.60;102126.00;;;;5072888;28;20184;-65
2022/07/15 01:44:16;;;;;;;0.40;0.40;;;16.00;99.90;16.50;102150.00;;;;5072248;28;20337;-65
2022/07/15 01:47:03;;;;;;;0.40;0.40;;;15.90;99.90;16.60;102149.00;;;;5072592;28;20187;-65
2022/07/15 01:50:08;;;;;;;0.80;0.80;;;15.90;99.90;16.10;102155.00;;;;5072291;28;20177;-65
2022/07/15 01:52:54;;;;;;;0.40;0.40;;;15.80;99.90;16.40;102143.00;;;;5072356;28;20607;-65
2022/07/15 01:55:39;;;;;;;0.50;0.50;;;15.70;99.90;16.60;102154.00;;;;5072252;28;20514;-65
2022/07/15 01:58:09;;;;;;;0.40;0.40;;;15.80;99.90;16.40;102149.00;;;;5072255;28;20184;-65
2022/07/15 02:01:13;;;;;;;0.40;0.40;;;15.80;99.90;16.40;102151.00;;;;5072324;28;20187;-65
2022/07/15 02:03:59;;;;;;;0.40;0.40;;;15.80;99.90;16.30;102156.00;;;;5040492;28;20219;-64
2022/07/15 02:06:43;;;;;;;0.50;0.50;;;15.80;99.90;16.60;102150.00;;;;5072334;28;20595;-64
2022/07/15 02:09:30;;;;;;;0.50;0.50;;;15.80;99.90;16.40;102143.00;;;;5072299;28;20180;-64
2022/07/15 02:12:14;;;;;;;0.50;0.50;;;15.80;99.90;16.40;102142.00;;;;5040731;28;20207;-64
2022/07/15 02:15:15;;;;;;;0.47;0.47;;;15.70;99.90;16.70;102144.00;;;;5072320;28;20260;-64
2022/07/15 02:18:06;;;;;;;0.50;0.50;;;15.90;99.90;15.90;102140.00;;;;5071933;28;20662;-64
2022/07/15 02:20:50;;;;;;;0.50;0.50;;;15.70;99.90;16.20;102144.00;;;;5072049;28;20180;-64
2022/07/15 02:23:58;;;;;;;0.50;0.50;;;15.70;99.90;16.20;102139.00;;;;5072208;28;20203;-64
2022/07/15 02:26:41;;;;;;;0.50;0.50;;;15.60;99.90;16.30;102144.00;;;;5040575;28;20278;-64
2022/07/15 02:29:27;;;;;;;0.53;0.53;;;15.60;99.90;16.10;102132.00;;;;5073656;28;20679;-64
2022/07/15 02:32:33;;;;;;;0.50;0.50;;;15.60;99.90;16.20;102146.00;;;;5071873;28;20244;-65
2022/07/15 02:35:35;;;;;;;0.50;0.50;;;15.50;99.90;16.50;102151.00;;;;5060111;28;20183;-65
2022/07/15 02:38:22;;;;;;;0.40;0.40;;;15.60;99.90;16.50;102129.00;;;;5072421;28;20186;-65
2022/07/15 02:41:11;;;;;;;0.50;0.50;;;15.70;99.90;16.40;102153.00;;;;5072112;28;20191;-65
2022/07/15 02:43:59;;;;;;;0.50;0.50;;;15.80;99.90;16.30;102150.00;;;;5071803;28;20223;-65
2022/07/15 02:46:45;;;;;;;0.50;0.50;;;15.70;99.90;16.10;102156.00;;;;5071747;28;20653;-65
2022/07/15 02:49:36;;;;;;;0.57;0.57;;;15.60;99.90;16.30;102145.00;;;;5071942;28;20176;-65
2022/07/15 02:52:26;;;;;;;0.50;0.50;;;15.60;99.90;16.40;102150.00;;;;5072019;28;20223;-65
2022/07/15 02:55:14;;;;;;;0.50;0.50;;;15.70;99.90;16.60;102153.00;;;;5057465;28;20181;-65
2022/07/15 02:58:19;;;;;;;0.60;0.60;;;15.80;99.90;16.10;102153.00;;;;5071866;28;20278;-65
2022/07/15 03:01:06;;;;;;;0.50;0.50;;;15.70;99.90;16.20;102159.00;;;;5058876;28;20186;-65
2022/07/15 03:04:00;;;;;;;0.50;0.50;;;15.60;99.90;16.40;102163.00;;;;5072059;28;20178;-64
2022/07/15 03:06:44;;;;;;;0.50;0.50;;;15.70;99.90;16.10;102132.00;;;;5038466;28;20189;-65
2022/07/15 03:09:28;;;;;;;0.50;0.50;;;15.60;99.90;16.30;102158.00;;;;5070821;28;20223;-65
2022/07/15 03:12:13;;;;;;;0.50;0.50;;;15.70;99.90;16.10;102166.00;;;;5054906;28;20241;-65
2022/07/15 03:14:57;;;;;;;0.50;0.50;;;15.50;99.90;16.30;102174.00;;;;5071385;28;20264;-65
2022/07/15 03:17:44;;;;;;;0.73;0.73;;;15.50;99.90;16.50;102180.00;;;;5054879;28;20209;-65
2022/07/15 03:20:46;;;;;;;0.53;0.53;;;15.60;99.90;15.90;102168.00;;;;5075299;28;20646;-65
2022/07/15 03:23:47;;;;;;;0.40;0.40;;;15.80;99.90;15.40;102174.00;;;;5074925;28;20219;-64
2022/07/15 03:26:33;;;;;;;0.40;0.40;;;15.30;99.90;15.80;102145.00;;;;5075149;28;20652;-65
2022/07/15 03:29:17;;;;;;;0.63;0.63;;;15.40;99.90;16.20;102176.00;;;;5075139;28;20713;-65
2022/07/15 03:32:03;;;;;;;0.40;0.40;;;15.60;99.90;15.40;102139.00;;;;5076653;28;20546;-64
2022/07/15 03:34:49;;;;;;;0.67;0.67;;;15.30;99.90;15.60;102181.00;;;;5075245;28;20570;-65
2022/07/15 03:37:36;;;;;;;0.40;0.40;;;15.20;99.90;16.10;102171.00;;;;5058365;28;20191;-65
2022/07/15 03:40:22;;;;;;;0.40;0.40;;;15.50;99.90;16.20;102172.00;;;;5075073;28;20203;-65
2022/07/15 03:43:30;;;;;;;0.50;0.50;;;15.50;99.90;16.20;102168.00;;;;5074979;28;20184;-65
2022/07/15 03:46:16;;;;;;;0.40;0.40;;;15.60;99.90;15.90;102165.00;;;;5043118;28;20203;-65
2022/07/15 03:49:18;;;;;;;0.50;0.50;;;15.40;99.90;16.60;102179.00;;;;5075147;28;20225;-65
2022/07/15 04:26:35;;;;;;;0.40;0.40;;;16.00;99.90;16.90;102161.00;;;;5075863;28;20256;-65
2022/07/15 04:29:01;;;;;;;0.50;0.50;;;16.00;99.90;16.80;102185.00;;;;5073327;28;20612;-65
2022/07/15 04:31:29;;;;;;;0.40;0.40;;;16.20;99.90;17.00;102149.00;;;;5056668;28;20218;-65
2022/07/15 04:34:13;;;;;;;0.50;0.50;;;16.30;99.90;17.10;102181.00;;;;5067751;28;20190;-65
2022/07/15 04:37:03;;;;;;;0.40;0.40;;;16.30;99.90;17.10;102188.00;;;;5074139;28;20227;-65
2022/07/15 04:39:55;;;;;;;0.40;0.40;;;16.40;99.90;16.70;102185.00;;;;5073751;28;20187;-65
2022/07/15 04:42:41;;;;;;;0.40;0.40;;;16.30;99.90;17.20;102185.00;;;;5073563;28;20177;-65
2022/07/15 04:45:27;;;;;;;0.47;0.47;;;16.40;99.90;17.30;102186.00;;;;5073747;28;20265;-65
2022/07/15 04:51:33;;;;;;;0.40;0.40;;;16.70;99.90;17.80;102190.00;;;;5073606;28;20530;-65
2022/07/15 04:54:24;;;;;;;0.40;0.40;;;17.00;99.90;17.80;102160.00;;;;5073637;28;20266;-65
2022/07/15 04:57:08;;;;;;;0.40;0.40;;;17.10;99.90;18.60;102188.00;;;;5073205;28;20238;-65
2022/07/15 04:59:56;;;;;;;0.30;0.30;;;17.50;99.90;19.60;102197.00;;;;5073597;28;20670;-65
2022/07/15 05:02:40;;;;;;;0.20;0.20;;;18.30;99.90;21.10;102205.00;;;;5074474;28;20637;-65
2022/07/15 05:05:24;;;;;;;0.13;0.13;;;19.50;99.90;22.30;102241.00;;;;5056792;28;20187;-65
2022/07/15 05:08:08;;;;;;;0.20;0.20;;;20.80;99.90;23.20;102281.00;;;;5073341;28;20177;-65
2022/07/15 05:10:52;;;;;;;0.10;0.10;;;21.80;99.90;24.30;102298.00;;;;5073450;28;20186;-65
2022/07/15 05:13:38;;;;;;;0.10;0.10;;;22.60;99.90;24.30;102325.00;;;;5072908;28;20209;-65
2022/07/15 05:16:46;;;;;;;0.10;0.10;;;23.20;99.90;26.40;102332.00;;;;5056722;28;20215;-65
2022/07/15 05:19:37;;;;;;;0.10;0.10;;;24.20;99.90;27.70;102327.00;;;;5056517;28;20185;-65
2022/07/15 05:22:23;;;;;;;0.10;0.10;;;25.60;99.90;28.90;102350.00;;;;5073122;28;20258;-66
2022/07/15 05:24:52;;;;;;;0.10;0.10;;;26.80;99.90;29.50;102338.00;;;;5072830;28;20209;-66
2022/07/15 05:27:36;;;;;;;0.10;0.10;;;27.50;99.90;30.20;102342.00;;;;5055961;28;20540;-66
2022/07/15 05:30:02;;;;;;;0.10;0.10;;;28.20;99.90;29.70;102322.00;;;;5072849;28;20254;-66
2022/07/15 05:32:42;;;;;;;0.10;0.10;;;28.30;99.90;29.80;102346.00;;;;5072525;28;20217;-66
2022/07/15 05:35:29;;;;;;;0.20;0.20;;;28.50;99.90;30.70;102346.00;;;;5056267;28;20272;-66
2022/07/15 05:38:30;;;;;;;0.10;0.10;;;28.80;99.90;30.80;102341.00;;;;5056288;28;20188;-66
2022/07/15 05:41:20;;;;;;;0.10;0.10;;;29.10;99.90;31.50;102332.00;;;;5072551;28;20192;-66
2022/07/15 05:43:52;;;;;;;0.10;0.10;;;29.60;99.90;29.60;102341.00;;;;5056461;28;20196;-65
2022/07/15 05:46:38;;;;;;;0.10;0.10;;;29.50;99.90;30.00;102345.00;;;;5056123;28;20182;-66
2022/07/15 05:49:22;;;;;;;0.10;0.10;;;28.60;99.90;27.30;102368.00;;;;5056383;28;20200;-66
2022/07/15 05:52:11;;;;;;;0.20;0.20;;;27.30;99.90;28.80;102367.00;;;;5072605;28;20208;-66
2022/07/15 05:54:48;;;;;;;0.10;0.10;;;27.50;99.90;29.70;102365.00;;;;5072262;28;20182;-65
2022/07/15 05:57:34;;;;;;;0.10;0.10;;;27.90;99.90;29.40;102370.00;;;;5055628;28;20185;-66
2022/07/15 06:00:10;;;;;;;0.40;0.40;;;28.00;99.90;30.00;102356.00;;;;5055756;28;20186;-66
2022/07/15 06:02:54;;;;;;;0.10;0.10;;;28.50;99.90;30.00;102336.00;;;;5071881;28;20231;-66
2022/07/15 06:05:37;;;;;;;0.10;0.10;;;28.70;99.90;29.80;102340.00;;;;5072060;28;20552;-66
2022/07/15 06:08:41;;;;;;;0.30;0.30;;;28.70;99.90;29.10;102370.00;;;;5055505;28;20644;-66
2022/07/15 06:11:48;;;;;;;0.20;0.20;;;28.30;99.90;27.00;102383.00;;;;5055632;28;20181;-66
2022/07/15 06:14:35;;;;;;;0.10;0.10;;;27.20;99.90;26.20;102393.00;;;;5055440;28;20189;-65
2022/07/15 06:17:39;;;;;;;0.68;0.68;;;26.10;99.90;25.20;102393.00;;;;5072439;28;20640;-66
2022/07/15 06:20:15;;;;;;;0.17;0.17;;;25.90;99.90;26.10;102353.00;;;;5055403;28;20250;-65
2022/07/15 06:23:02;;;;;;;0.10;0.10;;;25.60;99.90;27.30;102378.00;;;;5072380;28;20169;-65
2022/07/15 06:25:47;;;;;;;0.10;0.10;;;26.20;99.90;28.20;102383.00;;;;5055553;28;20192;-66
2022/07/15 06:28:36;;;;;;;0.10;0.10;;;27.20;99.90;27.00;102400.00;;;;5055190;28;20216;-65
2022/07/15 06:31:19;;;;;;;0.10;0.10;;;26.50;99.90;29.30;102388.00;;;;5055522;28;20193;-66
2022/07/15 06:34:08;;;;;;;0.85;0.30;;;27.60;99.90;29.30;102374.00;;;;5055594;28;20191;-66
2022/07/15 06:36:52;;;;;;;0.10;0.10;;;28.10;99.90;28.70;102375.00;;;;5055199;28;20671;-66
2022/07/15 06:39:35;;;;;;;0.00;0.00;;;28.20;99.90;29.30;102377.00;;;;5071668;28;20182;-66
2022/07/15 06:42:24;;;;;;;0.10;0.10;;;28.40;99.90;29.30;102388.00;;;;5055020;28;20177;-66
2022/07/15 06:44:57;;;;;;;0.10;0.10;;;28.30;99.90;28.30;102389.00;;;;5071637;28;20269;-66
2022/07/15 06:47:42;;;;;;;0.10;0.10;;;27.90;99.90;29.70;102359.00;;;;5071695;28;20687;-66
2022/07/15 06:50:31;;;;;;;0.10;0.10;;;28.60;99.90;28.50;102387.00;;;;5055294;28;20177;-66
2022/07/15 07:27:08;;;;;;;0.10;0.10;;;28.70;98.80;27.10;102391.00;;;;5078107;28;20177;-66
2022/07/15 07:29:35;;;;;;;0.40;0.40;;;28.00;98.30;29.10;102388.00;;;;5055226;28;20190;-66
2022/07/15 07:32:26;;;;;;;0.10;0.10;;;28.20;99.10;30.60;102381.00;;;;5073771;28;20224;-64
2022/07/15 07:35:12;;;;;;;0.10;0.10;;;29.00;98.30;31.80;102370.00;;;;5058349;28;20201;-67
2022/07/15 07:38:13;;;;;;;0.05;0.05;;;30.40;96.70;33.70;102362.00;;;;5075104;28;20560;-67
2022/07/15 07:40:57;;;;;;;0.10;0.10;;;32.10;94.60;32.70;102373.00;;;;5076350;28;20178;-66
2022/07/15 07:43:44;;;;;;;0.10;0.10;;;31.90;93.70;29.40;102396.00;;;;5075005;28;20821;-66
2022/07/15 07:46:35;;;;;;;0.10;0.10;;;30.60;93.50;31.90;102384.00;;;;5074972;28;20640;-67
2022/07/15 07:49:21;;;;;;;0.20;0.20;;;31.20;94.00;31.10;102395.00;;;;5075304;28;20231;-66
2022/07/15 07:52:05;;;;;;;0.10;0.10;;;30.40;93.20;30.60;102392.00;;;;5074574;28;20567;-66
2022/07/15 07:54:52;;;;;;;0.10;0.10;;;30.10;93.60;30.20;102397.00;;;;5074710;28;20188;-66
2022/07/15 07:57:46;;;;;;;0.10;0.10;;;29.90;93.00;30.10;102395.00;;;;5074743;28;20278;-66
2022/07/15 08:00:31;;;;;;;0.10;0.10;;;29.50;93.60;31.00;102390.00;;;;5074362;28;20529;-66
2022/07/15 08:03:32;;;;;;;0.55;0.55;;;29.90;93.00;32.60;102359.00;;;;5074848;28;20544;-66
2022/07/15 08:06:39;;;;;;;0.10;0.10;;;30.80;92.80;32.70;102372.00;;;;5074173;28;20173;-66
2022/07/15 08:09:25;;;;;;;0.00;0.00;;;31.40;92.20;32.50;102356.00;;;;5041303;28;20636;-66
2022/07/15 08:12:08;;;;;;;0.00;0.00;;;31.70;90.90;32.90;102347.00;;;;5057555;28;20201;-66
2022/07/15 08:14:54;;;;;;;0.00;0.00;;;31.80;90.70;33.30;102372.00;;;;5057618;28;20644;-67
2022/07/15 08:17:42;;;;;;;0.43;0.43;;;32.20;90.10;29.50;102383.00;;;;5074351;28;20555;-66
2022/07/15 08:20:37;;;;;;;0.10;0.10;;;30.60;90.20;28.50;102392.00;;;;5074198;28;20203;-66
2022/07/15 08:23:21;;;;;;;0.05;0.05;;;29.00;90.40;30.20;102398.00;;;;5057389;28;20182;-66
2022/07/15 08:26:08;;;;;;;0.10;0.10;;;28.90;91.00;30.50;102392.00;;;;5074392;28;20180;-66
2022/07/15 08:28:55;;;;;;;0.60;0.60;;;29.60;90.40;29.80;102361.00;;;;5074352;28;20632;-66
2022/07/15 08:31:41;;;;;;;0.10;0.10;;;29.00;90.80;31.50;102387.00;;;;5057100;28;20209;-66
2022/07/15 08:34:28;;;;;;;0.10;0.10;;;30.10;90.20;27.80;102410.00;;;;5073969;28;20184;-66
2022/07/15 08:37:14;;;;;;;0.10;0.10;;;28.30;91.00;27.40;102394.00;;;;5073898;28;20197;-66
2022/07/15 08:39:58;;;;;;;0.10;0.10;;;27.60;91.00;29.00;102409.00;;;;5040487;28;20239;-66
2022/07/15 08:42:46;;;;;;;0.10;0.10;;;27.90;91.30;31.20;102387.00;;;;5073787;28;20550;-67
2022/07/15 08:45:36;;;;;;;0.10;0.10;;;29.30;90.80;32.00;102368.00;;;;5057346;28;20189;-67
2022/07/15 08:48:28;;;;;;;0.10;0.10;;;30.70;90.60;24.10;102402.00;;;;5073358;28;20178;-65
2022/07/15 08:51:15;;;;;;;0.85;0.85;;;25.90;92.00;22.70;102411.00;;;;5073798;28;20209;-64
2022/07/15 08:53:58;;;;;;;0.17;0.17;;;23.40;95.90;24.80;102412.00;;;;5073569;28;20621;-65
2022/07/15 08:56:50;;;;;;;0.10;0.10;;;23.70;97.80;26.00;102415.00;;;;5073643;28;20624;-65
2022/07/15 08:59:46;;;;;;;0.10;0.10;;;24.40;97.50;25.00;102417.00;;;;5056929;28;20239;-65
2022/07/15 09:02:37;;;;;;;0.10;0.10;;;24.30;97.80;24.50;102406.00;;;;5057197;28;20266;-65
2022/07/15 09:05:32;;;;;;;0.10;0.10;;;24.00;98.30;24.00;102395.00;;;;5073681;28;20185;-65
2022/07/15 09:08:21;;;;;;;0.10;0.10;;;23.60;99.50;25.90;102432.00;;;;5073303;28;20605;-65
2022/07/15 09:11:28;;;;;;;0.20;0.20;;;24.50;98.40;26.20;102419.00;;;;5055776;28;20652;-65
2022/07/15 09:14:14;;;;;;;0.10;0.10;;;25.10;95.90;26.50;102415.00;;;;5039681;28;20216;-65
2022/07/15 09:17:19;;;;;;;0.10;0.10;;;25.20;96.30;26.00;102393.00;;;;5055389;28;20185;-65
2022/07/15 09:20:07;;;;;;;0.10;0.10;;;24.90;96.40;28.10;102399.00;;;;5056939;28;20213;-65
2022/07/15 09:22:56;;;;;;;0.15;0.15;;;26.50;95.20;27.10;102393.00;;;;5056562;28;20194;-65
2022/07/15 09:26:20;;;;;;;0.10;0.10;;;27.10;93.10;27.90;102384.00;;;;5072761;28;20208;-65
2022/07/15 09:39:01;;;;;;;0.10;0.10;;;28.30;91.70;30.70;102350.00;;;;5073164;28;20268;-65
2022/07/15 09:42:13;;;;;;;0.10;0.10;;;29.60;90.50;31.60;102343.00;;;;5072754;28;20532;-66
2022/07/15 09:45:43;;;;;;;0.10;0.10;;;30.40;88.80;27.50;102355.00;;;;5041225;28;20551;-65
2022/07/15 09:48:40;;;;;;;0.10;0.10;;;29.10;88.70;30.00;102359.00;;;;5041167;28;20662;-65
2022/07/15 09:51:29;;;;;;;0.13;0.13;;;28.50;90.30;26.70;102360.00;;;;5056076;28;20217;-66
2022/07/15 09:54:19;;;;;;;0.10;0.10;;;27.40;90.30;29.20;102367.00;;;;5055726;28;20231;-65
2022/07/15 09:57:06;;;;;;;0.60;0.40;;;27.70;91.30;26.60;102367.00;;;;5055692;28;20526;-65
2022/07/15 09:59:56;;;;;;;0.10;0.10;;;26.90;91.10;29.50;102361.00;;;;5055802;28;20185;-66
2022/07/15 10:02:40;;;;;;;1.17;0.22;;;27.80;91.30;29.60;102357.00;;;;5055339;28;20189;-66
2022/07/15 10:09:30;;;;;;;0.10;0.10;;;28.90;88.20;29.00;102354.00;;;;5073232;28;20185;-66
2022/07/15 10:12:26;;;;;;;0.40;0.38;;;28.40;89.00;28.70;102341.00;;;;5055524;28;20593;-66
2022/07/15 10:15:21;;;;;;;0.10;0.10;;;28.60;86.20;29.30;102342.00;;;;5055376;28;20177;-66
2022/07/15 10:18:11;;;;;;;0.17;0.17;;;28.60;87.70;29.60;102342.00;;;;5072024;28;20177;-66
2022/07/15 10:33:36;;;;;;;0.57;0.35;;;26.20;89.50;27.00;102359.00;;;;5106841;27;1501344;-66
2022/07/15 10:36:46;;;;;;;0.10;0.10;;;26.30;90.50;28.70;102351.00;;;;5105397;28;20194;-66
2022/07/15 10:40:06;;;;;;;0.30;0.30;;;27.40;90.10;29.40;102333.00;;;;5116953;28;20207;-66
2022/07/15 10:43:03;;;;;;;0.73;0.22;;;28.80;87.30;30.20;102329.00;;;;5114367;28;20344;-66
2022/07/15 10:49:12;;;;;;;0.10;0.10;;;29.90;85.80;30.70;102281.00;;;;5125278;28;20183;-66
2022/07/15 10:51:47;;;;;;;0.10;0.10;;;29.80;84.90;28.90;102322.00;;;;5130072;28;20233;-66
2022/07/15 10:54:22;;;;;;;0.10;0.10;;;28.70;85.90;28.00;102324.00;;;;5130166;28;20194;-66
2022/07/15 10:57:09;;;;;;;0.10;0.10;;;27.80;87.60;28.30;102333.00;;;;5130215;28;20555;-66
2022/07/15 10:59:56;;;;;;;0.85;0.73;;;27.50;88.00;26.80;102328.00;;;;5113120;28;20623;-66
2022/07/15 11:03:33;;;;;;;0.10;0.10;;;26.80;88.40;28.20;102335.00;;;;5112800;28;20179;-65
2022/07/15 11:06:19;;;;;;;0.10;0.10;;;27.10;89.40;29.60;102309.00;;;;5075767;27;20189;-65
2022/07/15 11:09:07;;;;;;;0.10;0.10;;;28.30;88.30;29.20;102326.00;;;;5130417;27;20190;-65
2022/07/15 11:11:43;;;;;;;0.10;0.10;;;28.60;86.40;29.70;102325.00;;;;5112791;28;20727;-65
2022/07/15 11:14:58;;;;;;;0.10;0.10;;;28.90;86.40;31.30;102316.00;;;;5129491;28;20175;-65
2022/07/15 11:17:47;;;;;;;0.10;0.10;;;29.90;84.40;30.30;102301.00;;;;5112941;28;20186;-65
2022/07/15 11:20:20;;;;;;;0.10;0.10;;;30.10;82.20;28.40;102329.00;;;;5112190;28;20219;-66
2022/07/15 11:23:17;;;;;;;0.22;0.22;;;28.00;84.80;27.90;102337.00;;;;5112207;28;20196;-66
2022/07/15 11:26:04;;;;;;;0.10;0.10;;;27.50;84.90;28.70;102334.00;;;;5112647;28;20180;-66
2022/07/15 11:28:58;;;;;;;0.10;0.10;;;27.40;86.10;27.80;102331.00;;;;5112216;28;20179;-66
2022/07/15 11:31:48;;;;;;;0.40;0.40;;;27.00;86.90;28.20;102327.00;;;;5112292;28;20206;-66
2022/07/15 11:34:44;;;;;;;0.20;0.20;;;27.50;86.50;27.10;102338.00;;;;5112250;28;20266;-66
2022/07/15 11:37:36;;;;;;;0.35;0.35;;;27.10;86.50;26.90;102309.00;;;;5112526;28;20168;-66
2022/07/15 11:47:10;;;;;;;0.10;0.10;;;25.60;88.70;27.10;102345.00;;;;5115762;28;20345;-66
2022/07/15 11:50:01;;;;;;;0.40;0.40;;;25.90;89.90;28.80;102337.00;;;;5098831;28;20214;-66
2022/07/15 11:52:45;;;;;;;0.10;0.10;;;27.20;89.60;29.70;102295.00;;;;5098469;28;20222;-67
2022/07/15 11:55:34;;;;;;;0.60;0.60;;;28.60;86.50;28.30;102312.00;;;;5098511;28;20191;-67
2022/07/15 11:58:44;;;;;;;1.15;0.45;;;28.40;83.70;25.20;102309.00;;;;5083540;28;20168;-66
2022/07/15 12:01:41;;;;;;;0.20;0.20;;;26.50;85.80;26.60;102323.00;;;;5097892;28;20233;-66
2022/07/15 12:04:26;;;;;;;1.17;0.55;;;25.40;89.30;27.40;102319.00;;;;5098084;28;20271;-66
2022/07/15 12:07:45;;;;;;;0.10;0.10;;;26.00;89.90;27.50;102328.00;;;;5098211;28;20199;-66
2022/07/15 12:10:36;;;;;;;0.10;0.10;;;26.30;88.90;27.40;102336.00;;;;5087602;28;20194;-66
2022/07/15 12:13:40;;;;;;;0.10;0.10;;;26.30;90.40;25.80;102332.00;;;;5097753;28;20216;-66
2022/07/15 12:16:35;;;;;;;0.15;0.15;;;26.00;90.00;26.70;102321.00;;;;5085194;28;20184;-66
2022/07/15 12:19:34;;;;;;;0.20;0.20;;;25.90;90.30;27.50;102331.00;;;;5097977;28;20179;-66
2022/07/15 12:22:18;;;;;;;0.10;0.10;;;26.20;90.70;27.20;102295.00;;;;5090411;28;20670;-66
2022/07/15 12:25:14;;;;;;;0.20;0.20;;;26.20;90.90;26.50;102318.00;;;;5097647;28;20266;-66
2022/07/15 12:28:01;;;;;;;0.10;0.10;;;26.60;90.40;25.90;102330.00;;;;5099539;28;20313;-66
2022/07/15 12:31:00;;;;;;;0.32;0.32;;;25.40;91.30;27.10;102321.00;;;;5082332;28;20185;-66
2022/07/15 12:33:50;;;;;;;0.10;0.10;;;25.90;91.50;27.60;102325.00;;;;5097772;28;20245;-66
2022/07/15 12:40:08;;;;;;;0.98;0.93;;;26.60;90.30;26.70;102327.00;;;;5108626;28;20244;-66
2022/07/15 12:42:48;;;;;;;0.10;0.10;;;26.00;90.30;27.00;102319.00;;;;5114254;28;20546;-66
2022/07/15 12:45:48;;;;;;;0.20;0.20;;;25.90;90.80;26.60;102312.00;;;;5097389;28;20208;-66
2022/07/15 12:48:43;;;;;;;1.08;0.95;;;25.70;90.80;26.20;102324.00;;;;5114447;28;20305;-66
2022/07/15 12:51:28;;;;;;;0.10;0.10;;;25.30;91.20;26.20;102310.00;;;;5097133;28;20203;-66
2022/07/15 12:54:17;;;;;;;0.10;0.10;;;25.20;91.90;26.50;102332.00;;;;5096871;28;20518;-66
2022/07/15 12:57:30;;;;;;;0.40;0.40;;;25.30;92.00;26.70;102326.00;;;;5096526;28;20203;-66
2022/07/15 13:00:08;;;;;;;2.60;0.30;;;25.60;91.90;25.50;102325.00;;;;5084902;28;20196;-66
2022/07/15 13:03:07;;;;;;;0.10;0.10;;;25.10;91.50;25.80;102335.00;;;;5114073;28;20545;-66
2022/07/15 13:05:45;;;;;;;0.35;0.20;;;24.90;92.40;24.60;102339.00;;;;5097340;28;20176;-66
2022/07/15 13:08:39;;;;;;;0.93;0.80;;;24.10;93.00;25.30;102327.00;;;;5097416;28;20306;-66
2022/07/15 13:11:33;;;;;;;0.17;0.17;;;24.40;93.00;26.30;102311.00;;;;5086793;28;20196;-66
2022/07/15 13:14:40;;;;;;;0.30;0.30;;;24.90;92.30;24.60;102316.00;;;;5096795;28;20188;-66
2022/07/15 13:17:25;;;;;;;0.30;0.30;;;24.20;91.30;25.70;102284.00;;;;5098402;28;20212;-66
2022/07/15 13:20:10;;;;;;;0.10;0.10;;;24.40;92.00;26.30;102310.00;;;;5096708;28;20631;-66
2022/07/15 13:22:59;;;;;;;0.10;0.10;;;25.00;92.00;26.80;102299.00;;;;5097183;28;20283;-66
2022/07/15 13:26:05;;;;;;;0.20;0.20;;;25.50;91.70;24.70;102303.00;;;;5096362;28;20188;-66
2022/07/15 13:29:12;;;;;;;0.30;0.30;;;24.90;92.00;25.70;102320.00;;;;5069096;28;20176;-66
2022/07/15 13:31:58;;;;;;;0.10;0.10;;;24.70;93.70;26.00;102319.00;;;;5068572;28;20254;-66
2022/07/15 13:34:50;;;;;;;0.10;0.10;;;24.90;94.10;26.30;102308.00;;;;5096673;28;20633;-66
2022/07/15 13:37:33;;;;;;;0.52;0.52;;;25.30;94.50;26.50;102312.00;;;;5081564;28;20631;-66
2022/07/15 13:40:17;;;;;;;0.40;0.40;;;25.50;94.10;27.30;102291.00;;;;5096136;28;20187;-66
2022/07/15 13:43:05;;;;;;;0.10;0.10;;;25.80;94.20;27.10;102306.00;;;;5096165;28;20180;-66
2022/07/15 13:45:51;;;;;;;0.10;0.10;;;26.10;93.90;26.70;102310.00;;;;5096159;28;20180;-66
2022/07/15 13:48:35;;;;;;;0.50;0.50;;;25.90;93.50;26.50;102281.00;;;;5095992;28;20176;-66
2022/07/15 13:51:24;;;;;;;0.75;0.45;;;25.60;93.70;24.30;102320.00;;;;5096205;28;20328;-66
2022/07/15 13:54:16;;;;;;;0.13;0.13;;;24.70;94.30;24.60;102307.00;;;;5096350;28;20183;-66
2022/07/15 13:57:06;;;;;;;0.38;0.30;;;24.30;94.90;24.60;102316.00;;;;5095972;28;20184;-66
2022/07/15 13:59:53;;;;;;;0.30;0.30;;;23.90;95.90;24.70;102311.00;;;;5081387;28;20214;-66
2022/07/15 14:02:40;;;;;;;0.15;0.15;;;24.00;96.40;25.00;102319.00;;;;5096088;28;20186;-66
2022/07/15 14:05:24;;;;;;;0.10;0.10;;;24.10;97.20;25.30;102306.00;;;;5096015;28;20233;-66
2022/07/15 14:08:15;;;;;;;0.20;0.20;;;24.30;97.10;25.70;102312.00;;;;5095376;28;20541;-66
2022/07/15 14:10:59;;;;;;;0.20;0.20;;;24.50;97.10;25.40;102307.00;;;;5080291;28;20668;-65
2022/07/15 14:13:45;;;;;;;0.10;0.10;;;24.60;96.60;26.10;102305.00;;;;5113859;28;20192;-65
2022/07/15 14:16:34;;;;;;;0.13;0.13;;;24.80;96.50;26.20;102297.00;;;;5096158;28;20203;-65
2022/07/15 14:19:41;;;;;;;0.10;0.10;;;25.10;96.80;26.70;102296.00;;;;5080596;28;20184;-65
2022/07/15 14:22:33;;;;;;;0.10;0.10;;;25.50;96.50;27.10;102283.00;;;;5083222;28;20289;-66
2022/07/15 14:25:16;;;;;;;0.10;0.10;;;25.80;95.80;27.70;102282.00;;;;5095540;28;20186;-65
2022/07/15 14:27:53;;;;;;;0.10;0.10;;;26.20;96.00;27.70;102284.00;;;;5095250;28;20180;-65
2022/07/15 14:30:40;;;;;;;0.20;0.20;;;26.40;95.60;27.80;102275.00;;;;5095636;28;20172;-65
2022/07/15 14:33:47;;;;;;;0.20;0.20;;;26.50;95.10;27.70;102278.00;;;;5079877;28;20313;-65